Sable: Past 24 Hour Conditions

 

Banquereau - 44139

07:00 PM ADT 25 October 2014Buoy position: 44.27N 57.08W
This table is a summary of hourly weather conditions for the past 24 hours.
Date / Time
(ADT)
Wind(knots) Wave height(m) Wave period(s) Pressure(kPa) Air tempC) Water tempC)
25 October 2014
19:00 W 18 gust 23 3.6 10.0 99.7 14 14
18:00 W 19 gust 25 3.2 10.0 99.7 14 14
17:00 W 18 gust 21 3.5 10.0 99.6 15 14
16:00 WSW 18 gust 23 3.3 10.0 99.6 15 14
15:00 WSW 18 gust 19 3.3 10.0 99.5 15 14
14:00 WSW 18 gust 21 3.1 10.0 99.5 15 15
13:00 WSW 16 gust 21 3.0 10.0 99.5 15 15
12:00 WSW 18 gust 21 2.8 9.0 99.5 16 15
11:00 WSW 18 gust 19 2.5 10.0 99.5 16 15
10:00 WSW 16 gust 19 2.2 10.0 99.5 16 14
9:00 WSW 16 gust 19 2.5 8.0 99.5 16 15
8:00 WSW 16 gust 19 2.4 10.0 99.5 16 15
7:00 SW 12 gust 16 2.5 10.0 99.4 16 15
6:00 SW 14 gust 16 2.7 8.0 99.4 16 15
5:00 SSW 12 gust 14 2.7 9.0 99.4 16 15
4:00 S 12 gust 16 2.8 8.0 99.4 17 15
3:00 S 14 gust 16 2.7 10.0 99.4 18 15
2:00 SE 8 gust 10 2.8 10.0 99.5 16 15
1:00 SE 8 gust 10 2.6 8.0 99.6 16 15
0:00 SSE 10 gust 12 2.1 9.0 99.7 17 15
24 October 2014
23:00 SSE 12 gust 14 2.3 10.0 99.7 16 15
22:00 SSE 12 gust 14 2.0 10.0 99.8 16 15
21:00 SSE 14 gust 16 2.1 8.0 99.8 16 15
20:00 SE 12 gust 14 2.0 10.0 99.9 16 15
19:00 SE 12 gust 14 2.0 10.0 100.0 16 14
 
Map of Atlantic - Newfoundland marine weather areas Southwestern Grand Banks - 44138 Banquereau - 44139 Tail of the Bank - 44140 Nickerson Bank - 44251 Northeast Burgeo Bank - 44255 Blanc-Sablon Airport Cap Whittle Chevery Natashquan Airport Heath Point Miscou Island Grand Étang Ingonish Beach North Mountain St.Paul Island J.A. Douglas McCurdy Sydney Airport Charlottetown Airport East Point North Cape Argentia Bonavista Burgeo Cape Race Corner Brook Daniel's Harbour Englee Ferolle Point La Scie Port aux Basques Rocky Harbour Sagona Island St. Anthony Airport St. John's Int'l Airport St. Lawrence Stephenville Airport Twillingate Winterland Wreckhouse Cartwright Airport Mary's Harbour Grates Cove Pool's Island Marticot Island Long Pond Îles de la Madeleine Airport
Legend: buoyBuoy land stationLand Station